Terminal Aerodrome Forecast
Issued by NWS

Home | Current Version | Previous Version | Text Only | Print | Product List | Glossary On
Versions: 1 2 3 4 5 6 7 8 9 10 11 12 13 14 15 16 17 18 19 20 21
000
FTUS43 KLSX 300520
TAFCPS
TAF
KCPS 300520Z 3006/0106 36008KT P6SM BKN015
     FM300900 34006KT P6SM BKN008
     FM301600 34009KT P6SM BKN015
     FM302000 33009KT P6SM VCSH BKN025
     FM010100 33005KT P6SM BKN020=

USA.gov is the U.S. government's official web portal to all federal, state and local government web resources and services.